Date,TemperatureHighF,TemperatureAvgF,TemperatureLowF,DewpointHighF,DewpointAvgF,DewpointLowF,HumidityHigh,HumidityAvg,HumidityLow,PressureMaxIn,PressureMinIn,WindSpeedMaxMPH,WindSpeedAvgMPH,GustSpeedMaxMPH,PrecipitationSumIn
2013-9-1,82.2,74.0,66.4,71.9,68.6,66.3,100,85,60,29.79,29.70,9,1,12,0.01
2013-9-2,81.1,72.8,66.3,72.2,67.8,59.2,100,85,66,29.83,29.72,12,1,16,0.38
2013-9-3,66.3,60.0,52.0,59.6,53.4,50.9,98,80,63,30.04,29.83,9,2,15,0.00
2013-9-4,79.8,64.1,50.4,60.2,55.1,50.2,100,76,41,30.12,30.03,7,1,13,0.01
2013-9-5,77.9,66.0,55.9,63.6,56.0,46.4,97,73,34,30.18,30.05,12,1,14,0.00
2013-9-6,77.2,60.6,47.0,52.4,47.4,37.4,99,67,26,30.24,30.09,6,0,11,0.00
2013-9-7,81.6,65.5,49.2,63.0,54.9,47.3,97,71,46,30.09,29.91,7,0,11,0.00
2013-9-8,82.6,72.4,64.7,68.9,64.7,60.8,93,78,58,29.99,29.88,9,0,11,0.00
2013-9-9,86.1,72.8,60.9,69.1,64.4,58.5,94,77,53,30.02,29.93,14,1,15,0.00
2013-9-10,90.7,80.1,71.1,73.3,70.3,66.4,87,73,50,30.06,29.97,12,2,15,0.00
2013-9-11,85.9,76.5,71.3,72.8,70.4,66.1,96,82,62,30.09,29.94,9,1,20,0.26
2013-9-12,75.1,70.0,60.9,71.3,67.1,57.9,100,91,66,29.95,29.79,12,2,18,0.39
2013-9-13,61.6,56.5,49.5,57.1,49.7,45.6,96,79,59,30.06,29.85,13,3,17,0.00
2013-9-14,68.9,54.2,42.8,47.8,43.2,40.3,94,70,39,30.16,30.05,7,1,11,0.01
2013-9-15,70.6,58.1,43.5,59.0,49.4,42.9,100,76,45,30.15,30.01,5,1,12,0.03
2013-9-16,71.6,60.3,52.3,60.0,53.6,48.5,100,81,47,30.28,30.04,5,0,11,0.13
2013-9-17,72.1,58.0,46.7,54.8,49.7,46.1,100,77,44,30.33,30.18,9,1,12,0.01
2013-9-18,73.5,62.0,53.6,62.2,56.3,50.8,97,83,65,30.17,30.04,9,1,10,0.00
2013-9-19,69.8,65.2,62.4,66.9,64.4,62.0,100,98,87,30.07,29.96,6,0,10,0.00
2013-9-20,83.2,72.0,65.0,70.6,66.7,64.9,100,85,55,29.98,29.74,10,2,13,0.02
2013-9-21,70.3,64.5,54.8,67.0,59.3,48.0,100,85,54,29.82,29.63,11,1,22,0.93
2013-9-22,65.0,55.0,46.2,48.7,45.8,41.8,97,73,47,30.02,29.82,10,1,14,0.00
2013-9-23,62.3,51.4,42.2,49.7,44.3,41.7,100,79,53,30.14,30.02,7,1,14,0.00
2013-9-24,68.8,52.8,40.3,49.8,45.2,40.2,100,79,41,30.12,29.94,10,1,12,0.01
2013-9-25,72.8,56.9,45.8,54.5,49.7,45.2,100,80,44,29.95,29.85,5,0,10,0.01
2013-9-26,79.8,63.3,51.7,56.2,49.5,40.8,93,66,26,30.06,29.89,5,0,10,0.00
2013-9-27,77.9,61.7,49.1,57.3,50.8,46.6,94,71,41,30.15,30.05,6,0,11,0.00
2013-9-28,77.9,62.3,49.8,57.9,51.9,48.9,99,73,38,30.18,30.05,8,0,10,0.00
2013-9-29,73.3,61.7,54.1,60.6,56.4,52.6,99,84,58,30.06,29.96,10,0,12,0.01
2013-9-30,72.0,62.3,58.7,62.7,58.8,57.2,99,89,62,30.01,29.92,4,0,11,0.04